METAR AND TAF INFORMATION
METAR FOR KOXV
ADDS - METARS form results

(1524 UTC 17 February 2019)
Data provider http://aviationweather.gov/metar/data/
 
METAR text: KOXV 171515Z AUTO 07005KT 2 1/2SM -SN BKN008 M04/M04 A2979 RMK AO2
Conditions at: KOXV (KNOXVILLE , IA, US) observed 1515 UTC 17 February 2019
Temperature: -4.0°C (25°F)
Dewpoint: -4.0°C (25°F) [RH = 100%]
Pressure (altimeter): 29.79 inches Hg (1008.9 mb)
Winds: from the ENE (70 degrees) at 6 MPH (5 knots; 2.6 m/s)
Visibility: 2.50 miles (4.02 km)
Ceiling: 800 feet AGL
Clouds: broken clouds at 800 feet AGL
Weather: -SN  (light snow)

METAR text: KOXV 171455Z AUTO 08005KT 2 1/2SM -SN SCT008 M05/M04 A2979 RMK AO2
Conditions at: KOXV (KNOXVILLE , IA, US) observed 1455 UTC 17 February 2019
Temperature: -5.0°C (23°F)
Dewpoint: -4.0°C (25°F) [RH = 108%]
Pressure (altimeter): 29.79 inches Hg (1008.9 mb)
Winds: from the E (80 degrees) at 6 MPH (5 knots; 2.6 m/s)
Visibility: 2.50 miles (4.02 km)
Ceiling: at least 12,000 feet AGL
Clouds: scattered clouds at 800 feet AGL
Weather: -SN  (light snow)

METAR text: KOXV 171435Z AUTO 08006KT 2SM -SN FEW007 SCT033 M05/M05 A2979 RMK AO2
Conditions at: KOXV (KNOXVILLE , IA, US) observed 1435 UTC 17 February 2019
Temperature: -5.0°C (23°F)
Dewpoint: -5.0°C (23°F) [RH = 100%]
Pressure (altimeter): 29.79 inches Hg (1008.9 mb)
Winds: from the E (80 degrees) at 7 MPH (6 knots; 3.1 m/s)
Visibility: 2.00 miles (3.22 km)
Ceiling: at least 12,000 feet AGL
Clouds: few clouds at 700 feet AGL
scattered clouds at 3300 feet AGL
Weather: -SN  (light snow)

 AIRPORT MAP

Esri Leaflet Quickstart
 RUNWAY INFORMATION
Runway 15 Runway length 4000 ft Runway width 75 ft
Runway elevation 924 ft Runway displaced threshold 0 ft Runway heading 156
Runway 33 Runway length 4000 ft Runway width 75 ft
Runway elevation 928 ft Runway displaced threshold 0 ft Runway heading 336

 AIRPORT FREQUENCIES
Type A/D Name DES MOINES Frequency 123.9 MHZ
Type AWOS Name AWOS 3 Frequency 119.775 MHZ
Type UNIC Name CTAF/UNICO Frequency 122.8 MHZ

 AIRPORT NEAR NAVIGATION AIDS



Powered by Virtual Airlines Manager [v2.6.2]